• Join FlightAware (Why Join?)
  • Login
  • US Flag 
04:13AM EDT


 

Airport Tracker/Info


-or-


 

Live Flight TrackerFlight Track Log ✈ UAL242 ✈ 29-Apr-2012 ✈ KORD - KPVD

Flight Track Log - Related Links

Times and Time Zones

All times are in EDT time to prevent confusion due to time zone crossing. See the UAL242 flight status page for this flight to view local times or setup timezone preferences in your user account.

Time Position Orientation Groundspeed Altitude Reporting Facility
EDT Latitude Longitude Course Direction KTS MPH feet Rate Location/Type
02:38PM 41.9848 -87.8637 38° Northeast  Level FlightAware Approximate
02:40PM 42.0275 -87.8181 75° East 161 185 4,300  Level Chicago Center
02:41PM 42.0450 -87.7281 85° East 204 235 6,700 2,760 Climbing Chicago Center
02:42PM 42.0519 -87.6217 83° East 243 280 9,900 2,520 Climbing Chicago Center
02:43PM 42.0625 -87.5011 81° East 289 333 11,800 2,460 Climbing Chicago Center
02:44PM 42.0789 -87.3664 81° East 332 382 14,900 2,460 Climbing Chicago Center
02:45PM 42.0953 -87.2231 81° East 366 421 16,800 1,980 Climbing Chicago Center
02:46PM 42.1131 -87.0714 87° East 394 453 18,900 2,040 Climbing Chicago Center
02:47PM 42.1203 -86.9089 87° East 411 473 20,900 1,980 Climbing Chicago Center
02:48PM 42.1272 -86.7461 89° East 430 495 22,900 1,080 Climbing Chicago Center
02:49PM 42.1294 -86.5781 88° East 441 507 23,100 900 Climbing Chicago Center
02:50PM 42.1336 -86.4069 87° East 446 513 24,700 1,800 Climbing Chicago Center
02:51PM 42.1394 -86.2386 88° East 446 513 26,800 1,740 Climbing Chicago Center
02:52PM 42.1450 -86.0619 91° East 452 520 28,200 1,200 Climbing Chicago Center
02:53PM 42.1433 -85.8658 91° East 469 540 29,300 1,980 Climbing Chicago Center
02:54PM 42.1417 -85.6811 88° East 480 552 32,200 1,800 Climbing Chicago Center
02:56PM 42.1486 -85.3478 86° East 456 525 34,700 1,020 Climbing Cleveland Center
02:57PM 42.1583 -85.1636 87° East 461 531 35,300 480 Climbing Cleveland Center
02:58PM 42.1650 -84.9958 86° East 482 555 35,700 540 Climbing Cleveland Center
02:59PM 42.1742 -84.8031 86° East 500 575 36,400 900 Climbing Cleveland Center
03:00PM 42.1856 -84.6047 85° East 514 592 37,500 900 Climbing Cleveland Center
03:01PM 42.1983 -84.4122 84° East 515 593 38,300 660 Climbing Cleveland Center
03:02PM 42.2131 -84.2194 83° East 515 593 38,900 300 Climbing Cleveland Center
03:03PM 42.2294 -84.0269 85° East 515 593 39,000  Climbing Cleveland Center
03:04PM 42.2439 -83.8117 85° East 515 593 39,000  Level Cleveland Center
03:05PM 42.2578 -83.6103 85° East 520 598 39,000  Level Cleveland Center
03:06PM 42.2711 -83.4172 85° East 520 598 39,000  Level Cleveland Center
03:07PM 42.2839 -83.2242 85° East 520 598 39,000 -60 Level Cleveland Center
03:08PM 42.2961 -83.0478 86° East 527 606 38,900  Descending Cleveland Center
03:09PM 42.3064 -82.8517 85° East 522 601 39,000  Climbing Cleveland Center
03:10PM 42.3186 -82.6583 85° East 512 589 38,900  Descending Cleveland Center
03:11PM 42.3303 -82.4594 86° East 521 600 39,000  Climbing Cleveland Center
03:12PM 42.3419 -82.2433 85° East 526 605 39,000  Level Cleveland Center
03:13PM 42.3550 -82.0442 87° East 531 611 39,000  Level Cleveland Center
03:14PM 42.3636 -81.8450 86° East 536 617 39,000  Level Cleveland Center
03:15PM 42.3742 -81.6400 85° East 537 618 39,000  Level Cleveland Center
03:16PM 42.3861 -81.4433 86° East 537 618 39,000  Level Cleveland Center
03:17PM 42.3958 -81.2439 86° East 537 618 39,000  Level Cleveland Center
03:18PM 42.4050 -81.0442 87° East 537 618 39,000  Level Cleveland Center
03:19PM 42.4119 -80.8447 87° East 537 618 39,000  Level Cleveland Center
03:20PM 42.4206 -80.6450 87° East 531 611 39,000  Level Cleveland Center
03:21PM 42.4267 -80.4678 87° East 536 617 39,000  Level Cleveland Center
03:22PM 42.4347 -80.2653 88° East 536 617 39,000  Level Cleveland Center
03:23PM 42.4403 -80.0656 86° East 536 617 39,000  Level Cleveland Center
03:24PM 42.4497 -79.8656 87° East 536 617 39,000  Level Cleveland Center
03:25PM 42.4567 -79.6658 87° East 536 617 39,000  Level Cleveland Center
03:26PM 42.4653 -79.4572 88° East 541 623 39,000  Level Cleveland Center
03:27PM 42.4714 -79.2544 88° East 541 623 39,000  Level Cleveland Center
03:28PM 42.4772 -79.0461 88° East 541 623 39,000  Level Cleveland Center
03:29PM 42.4822 -78.8236 88° East 536 617 39,000  Level Cleveland Center
03:30PM 42.4872 -78.6206 89° East 536 617 39,000  Level Cleveland Center
03:31PM 42.4900 -78.4206 88° East 536 617 39,000  Level Cleveland Center
03:32PM 42.4942 -78.2150 88° East 536 617 39,000  Level Cleveland Center
03:33PM 42.4983 -78.0178 89° East 531 611 39,000  Level Cleveland Center
03:34PM 42.5000 -77.8175 88° East 531 611 39,000  Level Cleveland Center
03:35PM 42.5056 -77.6172 89° East 531 611 39,000  Level Cleveland Center
03:36PM 42.5083 -77.4117 90° East 536 617 39,000 -60 Level Cleveland Center
03:37PM 42.5089 -77.2114 88° East 537 618 38,900  Descending Cleveland Center
03:38PM 42.5136 -77.0169 89° East 530 610 39,000  Climbing Cleveland Center
03:39PM 42.5153 -76.7869 89° East 549 632 39,000  Level Boston Center
03:40PM 42.5164 -76.5897 94° East 533 613 39,000  Level Boston Center
03:41PM 42.5047 -76.3861 95° East 540 621 39,000  Level Boston Center
03:42PM 42.4906 -76.1881 95° East 534 615 39,000  Level Boston Center
03:43PM 42.4783 -75.9931 96° East 529 609 39,000  Level Boston Center
03:44PM 42.4633 -75.7953 94° East 522 601 39,000 -240 Level Boston Center
03:45PM 42.4542 -75.6033 94° East 522 601 38,600 -900 Descending Boston Center
03:46PM 42.4428 -75.4083 95° East 522 601 37,200 -1,800 Descending Boston Center
03:47PM 42.4292 -75.2053 94° East 528 608 35,100 -4,140 Descending Boston Center
03:48PM 42.4175 -74.9939 96° East 547 629 29,000 -2,400 Descending Boston Center
03:49PM 42.3994 -74.7708 96° East 547 629 30,400  Climbing Boston Center
03:50PM 42.3847 -74.5678 96° East 547 629 29,000 -720 Descending Boston Center
03:51PM 42.3694 -74.3650 97° East 544 626 29,000  Level Boston Center
03:52PM 42.3536 -74.1792 97° East 550 633 29,000 -120 Level Boston Center
03:53PM 42.3358 -73.9764 95° East 550 633 28,800 -600 Descending Boston Center
03:54PM 42.3200 -73.7458 95° East 550 633 27,800 -1,200 Descending Boston Center
03:55PM 42.3056 -73.5264 97° East 565 650 26,400 -1,740 Descending Boston Center
03:56PM 42.2864 -73.3297 99° East 561 646 24,400 -2,100 Descending Boston Center
03:57PM 42.2647 -73.1497 131° Southeast 522 601 22,200 -2,100 Descending Boston Center
03:58PM 42.1822 -73.0200 134° Southeast 477 549 20,200 -1,620 Descending Boston Center
03:59PM 42.0806 -72.8792 135° Southeast 483 556 19,000 -600 Descending Boston Center
04:00PM 41.9936 -72.7642 131° Southeast 477 549 19,000  Level Boston Center
04:01PM 41.9106 -72.6353 127° Southeast 472 543 19,000 -780 Level Boston Center
04:02PM 41.8272 -72.4847 126° Southeast 454 522 17,500 -1,200 Descending Boston Center
04:03PM 41.7711 -72.3817 125° Southeast 405 466 16,700 -1,800 Descending Boston Center
04:04PM 41.7106 -72.2678 128° Southeast 378 435 14,000 -2,400 Descending Boston Center
04:05PM 41.6456 -72.1567 126° Southeast 359 413 12,000 -1,020 Descending Boston Center
04:06PM 41.5953 -72.0625 127° Southeast 354 407 12,000 -360 Level Boston Center
04:07PM 41.5303 -71.9492 128° Southeast 349 402 11,300 -960 Descending Boston Center
04:08PM 41.4778 -71.8611 102° East 349 402 10,100 -1,380 Descending Boston Center
04:09PM 41.4606 -71.7503 56° Northeast 307 353 8,600 -2,040 Descending Boston Center
04:10PM 41.5058 -71.6611 46° Northeast 252 290 6,100 -1,800 Descending Boston Center
04:11PM 41.5572 -71.5911 39° Northeast 264 304 5,000 -600 Descending Boston Center
04:12PM 41.6069 -71.5378 37° Northeast 240 276 5,000  Level Boston Center
04:13PM 41.6567 -71.4869 111° Southeast 223 257 5,000  Level Boston Center
04:14PM 41.6372 -71.4208 145° Southeast 160 184 5,000 -480 Level Boston Center
04:15PM 41.5931 -71.3797 128° Southeast 171 197 4,100 -1,080 Descending Boston Center
04:16PM 41.5614 -71.3247 23° Northeast 188 216 2,900 -900 Descending Boston Center
04:17PM 41.5964 -71.3047 23° Northeast 102 117 2,300 -600 Descending Boston Center